createdAt,value
2023-01-31T00:00:31.594Z,30.50
2023-01-31T00:02:59.533Z,31.50
2023-01-31T00:05:27.551Z,32.00
2023-01-31T00:07:56.036Z,33.40
2023-01-31T00:10:24.648Z,32.10
2023-01-31T00:12:53.458Z,33.40
2023-01-31T00:15:21.747Z,32.40
2023-01-31T00:17:49.846Z,32.90
2023-01-31T00:20:18.951Z,32.10
2023-01-31T00:22:47.110Z,31.30
2023-01-31T00:25:15.419Z,31.50
2023-01-31T00:27:43.573Z,29.20
2023-01-31T00:30:13.138Z,31.30
2023-01-31T00:32:41.117Z,30.90
2023-01-31T00:35:09.258Z,31.10
2023-01-31T00:37:37.571Z,31.70
2023-01-31T00:40:06.768Z,32.90
2023-01-31T00:42:35.535Z,32.90
2023-01-31T00:45:04.423Z,30.40
2023-01-31T00:47:32.714Z,31.10
2023-01-31T00:50:01.097Z,31.50
2023-01-31T00:52:29.940Z,32.90
2023-01-31T00:54:58.112Z,30.20
2023-01-31T00:57:26.539Z,32.80
2023-01-31T00:59:55.406Z,31.60
2023-01-31T01:02:23.623Z,32.80
2023-01-31T01:04:52.645Z,28.30
2023-01-31T01:07:20.683Z,30.30
2023-01-31T01:09:48.607Z,29.90
2023-01-31T01:12:16.776Z,32.50
2023-01-31T01:14:45.585Z,27.30
2023-01-31T01:17:13.557Z,31.00
2023-01-31T01:19:41.793Z,31.30
2023-01-31T01:22:09.738Z,30.50
2023-01-31T01:24:37.818Z,32.70
2023-01-31T01:27:06.046Z,33.00
2023-01-31T01:29:34.208Z,30.10
2023-01-31T01:32:02.920Z,32.60
2023-01-31T01:34:32.826Z,29.90
2023-01-31T01:37:01.298Z,34.70
2023-01-31T01:39:30.529Z,29.80
2023-01-31T01:41:59.258Z,28.90
2023-01-31T01:45:02.611Z,31.10
2023-01-31T01:47:50.942Z,31.50
2023-01-31T01:50:51.799Z,29.40
2023-01-31T01:53:23.248Z,29.90
2023-01-31T01:55:56.458Z,30.50
2023-01-31T01:58:29.042Z,29.80
2023-01-31T02:00:57.335Z,27.90
2023-01-31T02:03:26.116Z,26.50
2023-01-31T02:05:56.547Z,24.40
2023-01-31T02:08:26.574Z,40.30
2023-01-31T02:11:01.585Z,28.00
2023-01-31T02:13:30.521Z,28.20
2023-01-31T02:15:58.658Z,27.40
2023-01-31T02:18:27.824Z,23.70
2023-01-31T02:21:30.979Z,26.10
2023-01-31T02:24:17.641Z,25.70
2023-01-31T02:27:13.643Z,27.70
2023-01-31T02:30:08.595Z,28.90
2023-01-31T02:33:08.283Z,25.10
2023-01-31T02:35:51.903Z,25.70
2023-01-31T02:38:53.899Z,24.40
2023-01-31T02:41:28.629Z,26.60
2023-01-31T02:44:45.215Z,28.00
2023-01-31T02:47:52.809Z,23.90
2023-01-31T02:50:30.671Z,25.50
2023-01-31T02:53:07.186Z,24.00
2023-01-31T02:56:01.704Z,23.90
2023-01-31T02:58:33.803Z,24.30
2023-01-31T03:01:04.215Z,21.90
2023-01-31T03:03:34.804Z,21.40
2023-01-31T03:06:24.785Z,23.60
2023-01-31T03:09:22.260Z,22.30
2023-01-31T03:12:05.886Z,23.20
2023-01-31T03:14:45.880Z,21.90
2023-01-31T03:17:58.931Z,21.20
2023-01-31T03:20:38.256Z,26.90
2023-01-31T03:23:12.014Z,19.10
2023-01-31T03:25:40.659Z,21.70
2023-01-31T03:28:11.756Z,21.10
2023-01-31T03:30:43.578Z,21.90
2023-01-31T03:33:17.416Z,23.80
2023-01-31T03:35:49.023Z,24.10
2023-01-31T03:38:28.080Z,26.00
2023-01-31T03:41:04.734Z,21.10
2023-01-31T03:43:54.683Z,21.70
2023-01-31T03:46:29.998Z,24.40
2023-01-31T03:48:58.259Z,22.40
2023-01-31T03:51:28.893Z,23.70
2023-01-31T03:53:59.812Z,21.90
2023-01-31T03:56:34.066Z,20.90
2023-01-31T03:59:05.086Z,21.20
2023-01-31T04:04:07.671Z,28.00
2023-01-31T04:06:36.033Z,19.70
2023-01-31T04:09:05.184Z,24.40
2023-01-31T04:11:37.636Z,24.70
2023-01-31T04:14:05.719Z,22.50
2023-01-31T04:16:34.456Z,23.40
2023-01-31T04:19:02.793Z,23.00
2023-01-31T04:21:30.837Z,23.60
2023-01-31T04:23:58.776Z,23.10
2023-01-31T04:26:27.711Z,26.60
2023-01-31T04:28:55.668Z,23.40
2023-01-31T04:31:23.644Z,26.60
2023-01-31T04:33:51.797Z,25.10
2023-01-31T04:36:20.043Z,23.80
2023-01-31T04:38:47.985Z,24.60
2023-01-31T04:41:16.114Z,24.20
2023-01-31T04:43:44.132Z,26.50
2023-01-31T04:46:12.211Z,25.10
2023-01-31T04:48:41.552Z,26.30
2023-01-31T04:51:09.767Z,26.80
2023-01-31T04:53:38.328Z,22.20
2023-01-31T04:56:06.983Z,28.00
2023-01-31T04:58:35.616Z,23.90
2023-01-31T05:01:03.585Z,24.80
2023-01-31T05:03:31.872Z,23.00
2023-01-31T05:06:00.269Z,25.60
2023-01-31T05:08:29.585Z,24.80
2023-01-31T05:11:04.179Z,26.50
2023-01-31T05:13:33.338Z,27.00
2023-01-31T05:16:01.343Z,25.60
2023-01-31T05:18:29.866Z,26.70
2023-01-31T05:21:00.284Z,26.60
2023-01-31T05:23:28.206Z,25.70
2023-01-31T05:25:57.338Z,31.00
2023-01-31T05:28:26.411Z,26.80
2023-01-31T05:30:54.714Z,27.20
2023-01-31T05:33:23.446Z,29.00
2023-01-31T05:35:51.751Z,25.70
2023-01-31T05:38:19.891Z,27.90
2023-01-31T05:40:50.061Z,41.00
2023-01-31T05:43:18.215Z,39.70
2023-01-31T05:45:48.441Z,34.70
2023-01-31T05:48:17.161Z,28.80
2023-01-31T05:50:46.187Z,28.60
2023-01-31T05:53:14.153Z,26.20
2023-01-31T05:55:42.158Z,33.80
2023-01-31T05:58:10.173Z,28.90
2023-01-31T06:00:38.499Z,32.70
2023-01-31T06:03:06.668Z,31.80
2023-01-31T08:14:27.670Z,21.70
2023-01-31T08:16:55.313Z,28.70
2023-01-31T08:19:23.816Z,26.80
2023-01-31T08:21:50.606Z,21.80
2023-01-31T08:24:17.328Z,27.60
2023-01-31T08:26:44.467Z,25.70
2023-01-31T08:29:11.487Z,29.20
2023-01-31T08:31:39.909Z,26.10
2023-01-31T08:34:06.611Z,30.50
2023-01-31T08:36:35.243Z,22.70
2023-01-31T08:39:02.169Z,27.80
2023-01-31T08:41:29.542Z,30.60
2023-01-31T08:43:58.824Z,29.60
2023-01-31T08:46:35.949Z,28.10
2023-01-31T08:49:04.388Z,26.20
2023-01-31T08:51:31.657Z,26.70
2023-01-31T08:53:58.281Z,26.50
2023-01-31T08:56:25.618Z,26.30
2023-01-31T08:58:52.936Z,27.50
2023-01-31T09:01:20.052Z,25.90
2023-01-31T09:03:46.980Z,23.90
2023-01-31T09:06:15.455Z,29.20
2023-01-31T09:08:42.282Z,26.10
2023-01-31T09:11:09.247Z,27.00
2023-01-31T09:13:37.035Z,26.70
2023-01-31T09:16:05.485Z,27.10
2023-01-31T09:18:33.860Z,28.30
2023-01-31T09:21:08.024Z,28.20
2023-01-31T09:23:35.243Z,29.80
2023-01-31T09:26:02.615Z,27.90
2023-01-31T09:28:29.954Z,25.90
2023-01-31T09:31:03.342Z,27.60
2023-01-31T09:33:32.286Z,31.50
2023-01-31T09:36:01.238Z,26.90
2023-01-31T09:38:28.666Z,29.00
2023-01-31T09:40:55.890Z,29.40
2023-01-31T09:43:26.220Z,29.00
2023-01-31T09:45:54.314Z,26.70
2023-01-31T09:48:23.629Z,31.00
2023-01-31T09:50:53.560Z,29.40
2023-01-31T09:53:23.396Z,27.70
2023-01-31T09:56:00.130Z,25.10
2023-01-31T09:58:45.965Z,25.20
2023-01-31T10:01:15.616Z,28.80
2023-01-31T10:04:04.466Z,29.10
2023-01-31T10:06:38.613Z,26.60
2023-01-31T10:09:10.117Z,23.20
2023-01-31T10:11:41.093Z,27.50
2023-01-31T10:16:41.197Z,23.20
2023-01-31T10:19:16.592Z,26.40
2023-01-31T10:21:45.607Z,30.50
2023-01-31T10:24:37.422Z,25.80
2023-01-31T10:27:07.379Z,29.80
2023-01-31T10:29:45.160Z,25.40
2023-01-31T10:32:20.270Z,23.60
2023-01-31T10:34:51.727Z,29.50
2023-01-31T10:37:42.671Z,24.60
2023-01-31T10:40:19.098Z,28.40
2023-01-31T10:42:49.480Z,27.60
2023-01-31T10:45:23.359Z,29.50
2023-01-31T10:47:51.828Z,30.60
2023-01-31T10:50:33.677Z,27.40
2023-01-31T10:53:29.778Z,26.70
2023-01-31T11:03:32.940Z,35.10
2023-01-31T11:06:01.509Z,33.60
2023-01-31T11:08:33.132Z,32.60
2023-01-31T11:11:09.317Z,33.70
2023-01-31T11:13:39.117Z,33.00
2023-01-31T11:16:11.456Z,37.40
2023-01-31T11:18:47.974Z,34.40
2023-01-31T11:21:20.788Z,30.30
2023-01-31T11:23:48.813Z,34.80
2023-01-31T11:26:29.051Z,33.00
2023-01-31T11:28:57.265Z,33.90
2023-01-31T11:31:33.940Z,33.30
2023-01-31T11:34:04.244Z,34.30
2023-01-31T11:36:34.212Z,34.70
2023-01-31T11:39:05.826Z,31.30
2023-01-31T11:41:37.538Z,34.30
2023-01-31T11:44:16.738Z,34.30
2023-01-31T11:46:44.703Z,34.00
2023-01-31T11:49:20.304Z,31.20
2023-01-31T11:51:48.797Z,31.20
2023-01-31T11:54:21.842Z,34.80
2023-01-31T11:56:50.029Z,28.80
2023-01-31T11:59:20.863Z,30.10
2023-01-31T12:01:54.023Z,25.60
2023-01-31T12:04:26.449Z,30.00
2023-01-31T14:13:35.694Z,31.90
2023-01-31T14:16:04.239Z,33.20
2023-01-31T14:18:42.149Z,34.60
2023-01-31T14:21:35.038Z,36.30
2023-01-31T14:24:03.538Z,37.70
2023-01-31T14:26:42.327Z,38.70
2023-01-31T14:29:25.265Z,42.90
2023-01-31T14:31:53.213Z,44.30
2023-01-31T14:34:26.115Z,41.60
2023-01-31T14:37:00.490Z,43.10
2023-01-31T14:39:52.477Z,42.80
2023-01-31T14:42:27.928Z,42.50
2023-01-31T14:44:58.791Z,34.80
2023-01-31T14:47:28.969Z,39.10
2023-01-31T14:50:01.502Z,38.90
2023-01-31T14:52:53.454Z,41.40
2023-01-31T14:55:35.443Z,38.90
2023-01-31T14:58:02.135Z,41.70
2023-01-31T15:00:37.224Z,40.50
2023-01-31T15:03:03.965Z,41.50
2023-01-31T15:05:36.981Z,49.20
2023-01-31T15:08:26.743Z,43.20
2023-01-31T15:11:13.495Z,46.60
2023-01-31T15:13:54.270Z,44.90
2023-01-31T15:16:35.001Z,50.50
2023-01-31T15:19:14.352Z,57.70
2023-01-31T15:22:10.612Z,51.40
2023-01-31T15:24:40.404Z,43.40
2023-01-31T15:27:12.923Z,46.70
2023-01-31T15:29:58.226Z,48.40
2023-01-31T15:32:34.935Z,53.80
2023-01-31T15:35:11.382Z,59.90
2023-01-31T15:37:38.059Z,53.50
2023-01-31T15:40:18.196Z,59.10
2023-01-31T15:42:44.896Z,65.00
2023-01-31T15:45:13.015Z,56.20
2023-01-31T15:47:39.619Z,55.10
2023-01-31T15:50:18.256Z,41.20
2023-01-31T15:52:45.115Z,44.90
2023-01-31T15:55:13.487Z,44.50
2023-01-31T15:57:56.504Z,41.90
2023-01-31T16:00:29.456Z,38.80
2023-01-31T16:03:02.482Z,48.40
2023-01-31T16:05:38.918Z,44.70
2023-01-31T16:08:32.269Z,44.50
2023-01-31T16:11:06.360Z,37.40
2023-01-31T16:13:39.534Z,39.10
2023-01-31T16:16:09.800Z,43.50
2023-01-31T16:18:37.255Z,44.80
2023-01-31T16:21:38.827Z,43.10
2023-01-31T16:24:13.258Z,53.40
2023-01-31T16:26:55.358Z,40.20
2023-01-31T16:29:23.972Z,45.90
2023-01-31T16:31:52.594Z,42.70
2023-01-31T16:34:29.975Z,41.10
2023-01-31T16:37:03.115Z,43.50
2023-01-31T16:39:35.108Z,41.60
2023-01-31T16:42:07.156Z,44.00
2023-01-31T16:44:35.980Z,52.20
2023-01-31T16:47:04.143Z,38.50
2023-01-31T16:49:35.463Z,45.00
2023-01-31T16:52:17.014Z,45.70
2023-01-31T16:54:48.635Z,45.70
2023-01-31T16:57:37.577Z,37.20
2023-01-31T17:00:07.463Z,52.10
2023-01-31T17:02:39.254Z,44.80
2023-01-31T17:05:16.235Z,50.80
2023-01-31T17:07:43.427Z,48.40
2023-01-31T17:10:13.554Z,49.40
2023-01-31T17:12:40.516Z,51.80
2023-01-31T17:15:15.694Z,51.10
2023-01-31T17:17:43.378Z,46.00
2023-01-31T17:20:13.718Z,47.00
2023-01-31T17:22:42.242Z,56.40
2023-01-31T17:25:21.933Z,54.40
2023-01-31T17:27:49.228Z,46.90
2023-01-31T17:30:18.536Z,51.80
2023-01-31T17:32:45.672Z,45.00
2023-01-31T17:35:20.233Z,44.80
2023-01-31T17:37:47.389Z,42.20
2023-01-31T17:40:14.165Z,45.90
2023-01-31T17:42:41.697Z,46.20
2023-01-31T17:45:13.588Z,47.30
2023-01-31T17:47:40.676Z,45.20
2023-01-31T17:50:09.399Z,45.30
2023-01-31T17:52:37.020Z,43.10
2023-01-31T17:55:04.235Z,48.80
2023-01-31T18:00:01.964Z,47.30
2023-01-31T18:02:33.565Z,49.00
2023-01-31T18:05:00.194Z,48.60
2023-01-31T18:07:26.785Z,47.90
2023-01-31T18:09:54.077Z,46.80
2023-01-31T18:12:20.665Z,44.20
2023-01-31T18:14:47.258Z,41.70
2023-01-31T18:17:14.460Z,48.20
2023-01-31T18:19:41.208Z,40.70
2023-01-31T18:22:07.843Z,40.30
2023-01-31T18:24:34.649Z,45.00
2023-01-31T18:27:01.580Z,41.20
2023-01-31T18:29:29.111Z,43.60
2023-01-31T18:31:57.313Z,43.20
2023-01-31T18:34:24.799Z,44.60
2023-01-31T18:36:52.109Z,48.40
2023-01-31T18:39:19.122Z,46.20
2023-01-31T18:41:45.738Z,46.00
2023-01-31T18:44:12.423Z,46.90
2023-01-31T18:46:39.089Z,50.60
2023-01-31T18:49:05.968Z,47.30
2023-01-31T18:51:33.121Z,45.30
2023-01-31T18:54:00.187Z,46.60
2023-01-31T18:56:26.939Z,46.40
2023-01-31T18:58:53.842Z,52.60
2023-01-31T19:01:22.409Z,47.00
2023-01-31T19:03:52.463Z,47.60
2023-01-31T19:06:20.787Z,46.30
2023-01-31T19:08:48.557Z,49.70
2023-01-31T19:11:16.100Z,47.00
2023-01-31T19:13:43.929Z,49.20
2023-01-31T19:16:12.894Z,48.60
2023-01-31T19:18:39.815Z,48.40
2023-01-31T19:21:17.021Z,45.10
2023-01-31T19:23:44.152Z,43.80
2023-01-31T19:26:11.609Z,46.40
2023-01-31T19:28:39.003Z,48.90
2023-01-31T19:31:06.907Z,45.60
2023-01-31T19:33:35.770Z,49.70
2023-01-31T19:36:16.611Z,47.70
2023-01-31T19:38:44.296Z,49.80
2023-01-31T19:41:16.948Z,45.00
2023-01-31T19:43:47.605Z,48.40
2023-01-31T19:46:14.239Z,48.50
2023-01-31T19:48:41.225Z,48.90
2023-01-31T19:51:15.591Z,49.50
2023-01-31T19:53:42.817Z,47.90
2023-01-31T19:56:09.485Z,44.80
2023-01-31T19:58:36.785Z,48.20
2023-01-31T20:01:05.749Z,43.30
2023-01-31T20:03:32.833Z,46.40
2023-01-31T20:06:10.064Z,47.50
2023-01-31T20:08:37.919Z,45.60
2023-01-31T20:11:07.597Z,42.60
2023-01-31T20:13:35.570Z,46.10
2023-01-31T20:16:07.459Z,45.30
2023-01-31T20:18:37.460Z,44.70
2023-01-31T20:21:05.453Z,43.80
2023-01-31T20:23:32.440Z,44.40
2023-01-31T20:25:59.757Z,45.20
2023-01-31T20:28:26.652Z,46.80
2023-01-31T20:30:53.611Z,42.70
2023-01-31T20:33:20.573Z,45.90
2023-01-31T20:35:47.254Z,46.30
2023-01-31T20:38:16.590Z,44.10
2023-01-31T20:40:51.579Z,45.00
2023-01-31T20:43:18.660Z,46.00
2023-01-31T20:45:46.100Z,54.00
2023-01-31T20:48:12.964Z,45.30
2023-01-31T20:50:39.671Z,49.40
2023-01-31T20:53:14.729Z,48.60
2023-01-31T20:55:41.337Z,41.30
2023-01-31T20:58:10.081Z,46.20
2023-01-31T21:00:36.965Z,46.70
2023-01-31T21:03:03.738Z,40.90
2023-01-31T21:05:30.834Z,42.40
2023-01-31T21:07:58.118Z,45.80
2023-01-31T21:10:28.071Z,43.70
2023-01-31T21:12:55.050Z,44.70
2023-01-31T21:15:21.927Z,45.90
2023-01-31T21:17:48.603Z,41.80
2023-01-31T21:20:15.294Z,40.60
2023-01-31T21:22:42.390Z,38.40
2023-01-31T21:25:09.022Z,41.90
2023-01-31T21:27:36.125Z,45.00
2023-01-31T21:30:03.489Z,40.90
2023-01-31T21:32:30.327Z,45.00
2023-01-31T21:34:56.984Z,41.20
2023-01-31T21:37:24.075Z,41.20
2023-01-31T21:39:50.770Z,45.50
2023-01-31T21:42:19.038Z,40.00
2023-01-31T21:44:46.862Z,42.70
2023-01-31T21:47:14.236Z,43.50
2023-01-31T21:49:40.854Z,40.60
2023-01-31T21:52:08.131Z,44.50
2023-01-31T21:54:34.860Z,43.10
2023-01-31T21:57:01.458Z,44.00
2023-01-31T21:59:28.340Z,43.70
2023-01-31T22:01:55.750Z,43.20
2023-01-31T22:04:22.732Z,46.30
2023-01-31T22:06:50.463Z,43.20
2023-01-31T22:09:17.533Z,41.70
2023-01-31T22:11:46.841Z,38.50
2023-01-31T22:14:14.918Z,40.90
2023-01-31T22:16:41.599Z,40.40
2023-01-31T22:19:10.044Z,40.10
2023-01-31T22:21:36.908Z,38.00
2023-01-31T22:24:05.573Z,36.50
2023-01-31T22:26:36.407Z,41.20
2023-01-31T22:29:04.875Z,41.00
2023-01-31T22:31:32.545Z,39.60
2023-01-31T22:33:59.938Z,37.30
2023-01-31T22:36:26.781Z,38.50
2023-01-31T22:38:54.015Z,36.10
2023-01-31T22:41:20.854Z,37.00
2023-01-31T22:43:51.664Z,38.20
2023-01-31T22:46:20.919Z,37.90
2023-01-31T22:48:50.391Z,38.10
2023-01-31T22:51:22.229Z,43.40
2023-01-31T22:53:49.533Z,38.20
2023-01-31T22:56:19.195Z,40.90
2023-01-31T22:58:46.077Z,37.60
2023-01-31T23:01:13.071Z,42.10
2023-01-31T23:03:40.068Z,39.90
2023-01-31T23:06:06.953Z,44.20
2023-01-31T23:08:33.632Z,40.30
2023-01-31T23:13:38.713Z,36.00
2023-01-31T23:16:08.902Z,42.60
2023-01-31T23:18:35.592Z,42.90
2023-01-31T23:21:06.424Z,44.40
2023-01-31T23:23:34.175Z,40.60
2023-01-31T23:26:01.153Z,36.00
2023-01-31T23:28:30.146Z,39.30
2023-01-31T23:30:57.213Z,36.10
2023-01-31T23:33:24.208Z,40.50
2023-01-31T23:35:53.293Z,42.80
2023-01-31T23:38:19.915Z,42.90
2023-01-31T23:40:51.646Z,36.50
2023-01-31T23:43:19.224Z,35.10
2023-01-31T23:45:45.856Z,38.20
2023-01-31T23:48:12.587Z,38.80
2023-01-31T23:50:39.274Z,39.40
2023-01-31T23:53:05.938Z,42.60
2023-01-31T23:55:32.978Z,43.70
2023-01-31T23:57:59.829Z,37.10
